IGO7556 MPTO-SKBG
Flight info
| Callsign | IGO7556 |
|---|---|
| Flight time | 1h 14m |
| Altitude | 39000 |
| Route | REMAL1A REMAL DCT KUBEK UP790 EJA EJA2C |
| Aircraft | A20N/M-SDE2E3FGHIRWXY/LB1 |
Departure
| Time | 2026-05-07 17:04 |
|---|---|
| Airport | Tocumen International Airport (MPTO) |
Arrival
| Time | 2026-05-07 18:18 |
|---|---|
| Airport | Palonegro Airport (SKBG) |
| Time | Latitude | Longitude | Altitude | Speed | Heading |
|---|---|---|---|---|---|
| 2026-05-07 16:01 | 9.06860 | -79.38533 | 55 ft | 0 kts | 180° |
| 2026-05-07 16:45 | 9.06863 | -79.38533 | 54 ft | 1 kts | 180° |
| 2026-05-07 16:45 | 9.06872 | -79.38533 | 52 ft | 1 kts | 179° |
| 2026-05-07 16:45 | 9.06883 | -79.38534 | 53 ft | 1 kts | 160° |
| 2026-05-07 16:46 | 9.06893 | -79.38538 | 54 ft | 1 kts | 138° |
| 2026-05-07 16:46 | 9.06901 | -79.38547 | 56 ft | 1 kts | 115° |
| 2026-05-07 16:46 | 9.06904 | -79.38557 | 51 ft | 1 kts | 91° |
| 2026-05-07 16:46 | 9.06903 | -79.38570 | 57 ft | 0 kts | 65° |
| 2026-05-07 16:47 | 9.06904 | -79.38568 | 56 ft | 0 kts | 65° |
| 2026-05-07 16:47 | 9.06904 | -79.38567 | 57 ft | 0 kts | 65° |
| 2026-05-07 16:49 | 9.06905 | -79.38567 | 50 ft | 1 kts | 65° |
| 2026-05-07 16:49 | 9.06924 | -79.38527 | 55 ft | 9 kts | 66° |
| 2026-05-07 16:49 | 9.06916 | -79.38463 | 51 ft | 11 kts | 114° |
| 2026-05-07 16:50 | 9.06864 | -79.38400 | 49 ft | 13 kts | 146° |
| 2026-05-07 16:50 | 9.06781 | -79.38400 | 47 ft | 12 kts | 204° |
| 2026-05-07 16:50 | 9.06709 | -79.38435 | 46 ft | 11 kts | 206° |
| 2026-05-07 16:50 | 9.06654 | -79.38439 | 46 ft | 0 kts | 162° |
| 2026-05-07 16:51 | 9.06650 | -79.38438 | 45 ft | 1 kts | 157° |
| 2026-05-07 16:51 | 9.06639 | -79.38433 | 43 ft | 2 kts | 163° |
| 2026-05-07 16:51 | 9.06636 | -79.38435 | 45 ft | 1 kts | 191° |
| 2026-05-07 16:51 | 9.06626 | -79.38443 | 45 ft | 4 kts | 219° |
| 2026-05-07 16:52 | 9.06602 | -79.38472 | 45 ft | 6 kts | 232° |
| 2026-05-07 16:52 | 9.06566 | -79.38516 | 44 ft | 11 kts | 224° |
| 2026-05-07 16:52 | 9.06543 | -79.38534 | 46 ft | 0 kts | 213° |
| 2026-05-07 16:53 | 9.06480 | -79.38570 | 46 ft | 16 kts | 208° |
| 2026-05-07 16:53 | 9.06382 | -79.38635 | 45 ft | 16 kts | 205° |
| 2026-05-07 16:53 | 9.06277 | -79.38644 | 44 ft | 15 kts | 176° |
| 2026-05-07 16:53 | 9.06180 | -79.38653 | 44 ft | 13 kts | 195° |
| 2026-05-07 16:54 | 9.06072 | -79.38707 | 44 ft | 19 kts | 209° |
| 2026-05-07 16:54 | 9.05958 | -79.38771 | 44 ft | 18 kts | 209° |
| 2026-05-07 16:54 | 9.05855 | -79.38831 | 44 ft | 16 kts | 209° |
| 2026-05-07 16:54 | 9.05761 | -79.38882 | 44 ft | 15 kts | 208° |
| 2026-05-07 16:55 | 9.05677 | -79.38927 | 44 ft | 13 kts | 207° |
| 2026-05-07 16:55 | 9.05601 | -79.38970 | 43 ft | 12 kts | 210° |
| 2026-05-07 16:55 | 9.05535 | -79.39009 | 43 ft | 10 kts | 210° |
| 2026-05-07 16:55 | 9.05477 | -79.39043 | 43 ft | 9 kts | 210° |
| 2026-05-07 16:56 | 9.05427 | -79.39072 | 44 ft | 8 kts | 209° |
| 2026-05-07 16:56 | 9.05384 | -79.39096 | 44 ft | 6 kts | 209° |
| 2026-05-07 16:56 | 9.05298 | -79.39142 | 44 ft | 18 kts | 208° |
| 2026-05-07 16:57 | 9.05196 | -79.39203 | 44 ft | 16 kts | 209° |
| 2026-05-07 16:57 | 9.05103 | -79.39258 | 44 ft | 14 kts | 211° |
| 2026-05-07 16:57 | 9.05021 | -79.39305 | 44 ft | 13 kts | 208° |
| 2026-05-07 16:57 | 9.04979 | -79.39328 | 44 ft | 0 kts | 208° |
| 2026-05-07 16:58 | 9.04978 | -79.39328 | 44 ft | 3 kts | 208° |
| 2026-05-07 16:59 | 9.04913 | -79.39364 | 44 ft | 12 kts | 209° |
| 2026-05-07 16:59 | 9.04867 | -79.39381 | 44 ft | 0 kts | 182° |
| 2026-05-07 17:00 | 9.04832 | -79.39365 | 44 ft | 10 kts | 135° |
| 2026-05-07 17:00 | 9.04809 | -79.39328 | 45 ft | 0 kts | 117° |
| 2026-05-07 17:02 | 9.04808 | -79.39327 | 45 ft | 1 kts | 117° |
| 2026-05-07 17:02 | 9.04797 | -79.39239 | 44 ft | 17 kts | 51° |
| 2026-05-07 17:03 | 9.04827 | -79.39224 | 44 ft | 0 kts | 14° |
| 2026-05-07 17:03 | 9.04919 | -79.39182 | 43 ft | 49 kts | 27° |
| 2026-05-07 17:03 | 9.05481 | -79.38863 | 44 ft | 131 kts | 30° |
| 2026-05-07 17:03 | 9.06430 | -79.38321 | 259 ft | 175 kts | 29° |
| 2026-05-07 17:04 | 9.07423 | -79.37744 | 928 ft | 159 kts | 29° |
| 2026-05-07 17:04 | 9.08387 | -79.37211 | 1591 ft | 153 kts | 28° |
| 2026-05-07 17:04 | 9.09344 | -79.36678 | 2126 ft | 171 kts | 37° |
| 2026-05-07 17:04 | 9.10139 | -79.35623 | 2399 ft | 214 kts | 63° |
| 2026-05-07 17:05 | 9.10860 | -79.34046 | 2340 ft | 275 kts | 67° |
| 2026-05-07 17:05 | 9.11252 | -79.32001 | 2340 ft | 320 kts | 91° |
| 2026-05-07 17:05 | 9.10679 | -79.29771 | 2984 ft | 332 kts | 116° |
| 2026-05-07 17:05 | 9.09693 | -79.27768 | 3900 ft | 302 kts | 110° |
| 2026-05-07 17:06 | 9.08992 | -79.25905 | 4422 ft | 267 kts | 109° |
| 2026-05-07 17:06 | 9.08382 | -79.24213 | 4738 ft | 253 kts | 108° |
| 2026-05-07 17:06 | 9.07777 | -79.22502 | 5413 ft | 260 kts | 109° |
| 2026-05-07 17:06 | 9.07165 | -79.20776 | 6202 ft | 261 kts | 109° |
| 2026-05-07 17:07 | 9.06545 | -79.19035 | 6617 ft | 264 kts | 109° |
| 2026-05-07 17:07 | 9.05991 | -79.17270 | 6851 ft | 263 kts | 102° |
| 2026-05-07 17:07 | 9.05752 | -79.15426 | 7086 ft | 265 kts | 91° |
| 2026-05-07 17:07 | 9.05731 | -79.13571 | 7261 ft | 265 kts | 90° |
| 2026-05-07 17:08 | 9.05700 | -79.11702 | 7409 ft | 266 kts | 91° |
| 2026-05-07 17:08 | 9.05662 | -79.09838 | 7621 ft | 266 kts | 91° |
| 2026-05-07 17:08 | 9.05621 | -79.07964 | 7861 ft | 267 kts | 91° |
| 2026-05-07 17:08 | 9.05579 | -79.06082 | 8113 ft | 268 kts | 91° |
| 2026-05-07 17:09 | 9.05538 | -79.04195 | 8347 ft | 268 kts | 91° |
| 2026-05-07 17:09 | 9.05496 | -79.02301 | 8599 ft | 269 kts | 91° |
| 2026-05-07 17:09 | 9.05455 | -79.00405 | 8843 ft | 270 kts | 91° |
| 2026-05-07 17:09 | 9.05413 | -78.98505 | 9095 ft | 270 kts | 91° |
| 2026-05-07 17:10 | 9.05372 | -78.96604 | 9343 ft | 271 kts | 91° |
| 2026-05-07 17:10 | 9.05331 | -78.94703 | 9593 ft | 272 kts | 91° |
| 2026-05-07 17:10 | 9.05289 | -78.92779 | 9843 ft | 273 kts | 91° |
| 2026-05-07 17:10 | 9.05248 | -78.90863 | 10069 ft | 273 kts | 91° |
| 2026-05-07 17:11 | 9.05206 | -78.88943 | 10302 ft | 273 kts | 91° |
| 2026-05-07 17:11 | 9.05163 | -78.87025 | 10525 ft | 274 kts | 91° |
| 2026-05-07 17:11 | 9.05120 | -78.85099 | 10762 ft | 272 kts | 91° |
| 2026-05-07 17:11 | 9.04901 | -78.83204 | 11000 ft | 275 kts | 107° |
| 2026-05-07 17:12 | 9.04034 | -78.81488 | 11223 ft | 277 kts | 127° |
| 2026-05-07 17:12 | 9.02713 | -78.80054 | 11469 ft | 280 kts | 131° |
| 2026-05-07 17:12 | 9.01359 | -78.78631 | 11706 ft | 280 kts | 131° |
| 2026-05-07 17:12 | 9.00013 | -78.77202 | 11947 ft | 281 kts | 131° |
| 2026-05-07 17:13 | 8.98669 | -78.75769 | 12186 ft | 281 kts | 131° |
| 2026-05-07 17:13 | 8.97318 | -78.74326 | 12438 ft | 282 kts | 130° |
| 2026-05-07 17:13 | 8.95978 | -78.72895 | 12687 ft | 282 kts | 130° |
| 2026-05-07 17:13 | 8.94622 | -78.71444 | 12934 ft | 283 kts | 130° |
| 2026-05-07 17:14 | 8.93276 | -78.70006 | 13186 ft | 284 kts | 130° |
| 2026-05-07 17:14 | 8.91907 | -78.68544 | 13451 ft | 285 kts | 130° |
| 2026-05-07 17:14 | 8.90542 | -78.67084 | 13692 ft | 286 kts | 130° |
| 2026-05-07 17:14 | 8.89173 | -78.65621 | 13920 ft | 287 kts | 130° |
| 2026-05-07 17:15 | 8.87922 | -78.64285 | 14128 ft | 288 kts | 130° |
| 2026-05-07 17:15 | 8.86557 | -78.62827 | 14352 ft | 289 kts | 130° |
| 2026-05-07 17:15 | 8.85168 | -78.61344 | 14582 ft | 290 kts | 130° |
| 2026-05-07 17:15 | 8.83781 | -78.59863 | 14807 ft | 292 kts | 130° |
| 2026-05-07 17:16 | 8.82376 | -78.58363 | 15044 ft | 293 kts | 130° |
| 2026-05-07 17:16 | 8.80970 | -78.56862 | 15275 ft | 295 kts | 130° |
| 2026-05-07 17:16 | 8.79561 | -78.55359 | 15506 ft | 295 kts | 130° |
| 2026-05-07 17:16 | 8.78143 | -78.53846 | 15746 ft | 296 kts | 130° |
| 2026-05-07 17:17 | 8.76719 | -78.52327 | 15992 ft | 298 kts | 130° |
| 2026-05-07 17:17 | 8.75296 | -78.50807 | 16216 ft | 299 kts | 130° |
| 2026-05-07 17:17 | 8.73860 | -78.49274 | 16460 ft | 299 kts | 130° |
| 2026-05-07 17:17 | 8.72422 | -78.47741 | 16708 ft | 302 kts | 130° |
| 2026-05-07 17:18 | 8.70975 | -78.46198 | 17164 ft | 297 kts | 130° |
| 2026-05-07 17:18 | 8.69619 | -78.44756 | 18260 ft | 280 kts | 130° |
| 2026-05-07 17:18 | 8.68263 | -78.43312 | 18970 ft | 278 kts | 130° |
| 2026-05-07 17:18 | 8.66922 | -78.41878 | 19435 ft | 283 kts | 130° |
| 2026-05-07 17:19 | 8.65578 | -78.40442 | 19925 ft | 286 kts | 130° |
| 2026-05-07 17:19 | 8.64189 | -78.38958 | 20417 ft | 289 kts | 130° |
| 2026-05-07 17:19 | 8.62793 | -78.37469 | 20877 ft | 293 kts | 130° |
| 2026-05-07 17:19 | 8.61384 | -78.35967 | 21355 ft | 296 kts | 130° |
| 2026-05-07 17:20 | 8.59974 | -78.34464 | 21811 ft | 300 kts | 130° |
| 2026-05-07 17:20 | 8.58512 | -78.32907 | 22297 ft | 304 kts | 130° |
| 2026-05-07 17:20 | 8.57065 | -78.31367 | 22743 ft | 307 kts | 130° |
| 2026-05-07 17:20 | 8.55566 | -78.29769 | 23178 ft | 311 kts | 130° |
| 2026-05-07 17:21 | 8.54086 | -78.28194 | 23592 ft | 314 kts | 130° |
| 2026-05-07 17:21 | 8.52578 | -78.26587 | 23946 ft | 318 kts | 130° |
| 2026-05-07 17:21 | 8.51045 | -78.24954 | 24334 ft | 320 kts | 130° |
| 2026-05-07 17:21 | 8.49507 | -78.23316 | 24688 ft | 324 kts | 130° |
| 2026-05-07 17:22 | 8.47949 | -78.21657 | 25050 ft | 327 kts | 131° |
| 2026-05-07 17:22 | 8.46379 | -78.19986 | 25425 ft | 329 kts | 131° |
| 2026-05-07 17:22 | 8.44792 | -78.18296 | 25770 ft | 333 kts | 131° |
| 2026-05-07 17:22 | 8.43195 | -78.16596 | 26116 ft | 336 kts | 131° |
| 2026-05-07 17:23 | 8.41618 | -78.14843 | 26476 ft | 337 kts | 126° |
| 2026-05-07 17:23 | 8.40307 | -78.12881 | 26797 ft | 339 kts | 116° |
| 2026-05-07 17:23 | 8.39309 | -78.10721 | 27120 ft | 340 kts | 110° |
| 2026-05-07 17:23 | 8.38413 | -78.08493 | 27459 ft | 343 kts | 110° |
| 2026-05-07 17:24 | 8.37499 | -78.06262 | 27773 ft | 346 kts | 111° |
| 2026-05-07 17:24 | 8.36567 | -78.04003 | 28098 ft | 349 kts | 111° |
| 2026-05-07 17:24 | 8.35631 | -78.01739 | 28431 ft | 351 kts | 111° |
| 2026-05-07 17:24 | 8.34685 | -77.99448 | 28733 ft | 355 kts | 111° |
| 2026-05-07 17:25 | 8.33731 | -77.97138 | 29040 ft | 358 kts | 111° |
| 2026-05-07 17:25 | 8.32777 | -77.94828 | 29350 ft | 360 kts | 111° |
| 2026-05-07 17:25 | 8.31809 | -77.92482 | 29639 ft | 363 kts | 111° |
| 2026-05-07 17:25 | 8.30830 | -77.90110 | 29938 ft | 366 kts | 111° |
| 2026-05-07 17:26 | 8.29848 | -77.87732 | 30208 ft | 368 kts | 111° |
| 2026-05-07 17:26 | 8.28858 | -77.85336 | 30493 ft | 370 kts | 111° |
| 2026-05-07 17:26 | 8.27874 | -77.82956 | 30742 ft | 373 kts | 111° |
| 2026-05-07 17:26 | 8.26862 | -77.80505 | 31008 ft | 375 kts | 111° |
| 2026-05-07 17:27 | 8.26479 | -77.79580 | 31112 ft | 376 kts | 111° |
| 2026-05-07 17:28 | 8.25454 | -77.77100 | 31397 ft | 378 kts | 111° |
| 2026-05-07 17:28 | 8.24439 | -77.74644 | 31639 ft | 381 kts | 111° |
| 2026-05-07 17:28 | 8.23408 | -77.72150 | 31878 ft | 383 kts | 111° |
| 2026-05-07 17:29 | 8.22371 | -77.69644 | 32151 ft | 385 kts | 111° |
| 2026-05-07 17:29 | 8.21354 | -77.67185 | 32405 ft | 387 kts | 111° |
| 2026-05-07 17:29 | 8.20314 | -77.64672 | 32624 ft | 389 kts | 111° |
| 2026-05-07 17:29 | 8.19253 | -77.62108 | 32853 ft | 392 kts | 111° |
| 2026-05-07 17:30 | 8.18214 | -77.59599 | 33095 ft | 393 kts | 111° |
| 2026-05-07 17:30 | 8.17159 | -77.57052 | 33334 ft | 395 kts | 111° |
| 2026-05-07 17:30 | 8.16095 | -77.54481 | 33550 ft | 397 kts | 111° |
| 2026-05-07 17:30 | 8.15022 | -77.51891 | 33741 ft | 400 kts | 111° |
| 2026-05-07 17:31 | 8.13948 | -77.49301 | 33964 ft | 402 kts | 111° |
| 2026-05-07 17:31 | 8.12868 | -77.46696 | 34170 ft | 403 kts | 111° |
| 2026-05-07 17:31 | 8.11785 | -77.44084 | 34363 ft | 404 kts | 111° |
| 2026-05-07 17:31 | 8.10697 | -77.41460 | 34539 ft | 406 kts | 112° |
| 2026-05-07 17:32 | 8.09601 | -77.38816 | 34694 ft | 408 kts | 112° |
| 2026-05-07 17:32 | 8.08503 | -77.36169 | 34876 ft | 410 kts | 112° |
| 2026-05-07 17:32 | 8.06655 | -77.31711 | 34937 ft | 419 kts | 112° |
| 2026-05-07 17:33 | 8.03972 | -77.25245 | 34934 ft | 436 kts | 112° |
| 2026-05-07 17:33 | 8.01844 | -77.19412 | 34928 ft | 449 kts | 105° |
| 2026-05-07 17:34 | 8.00095 | -77.13277 | 34929 ft | 462 kts | 105° |
| 2026-05-07 17:34 | 7.98290 | -77.07006 | 34922 ft | 467 kts | 105° |
| 2026-05-07 17:35 | 7.96476 | -77.00710 | 34923 ft | 466 kts | 105° |
| 2026-05-07 17:35 | 7.94666 | -76.94427 | 34928 ft | 466 kts | 105° |
| 2026-05-07 17:36 | 7.92857 | -76.88154 | 34931 ft | 467 kts | 105° |
| 2026-05-07 17:36 | 7.91055 | -76.81909 | 34936 ft | 466 kts | 105° |
| 2026-05-07 17:37 | 7.89242 | -76.75628 | 34938 ft | 467 kts | 105° |
| 2026-05-07 17:37 | 7.87732 | -76.70402 | 34936 ft | 467 kts | 105° |
| 2026-05-07 17:38 | 7.85907 | -76.64086 | 34938 ft | 467 kts | 105° |
| 2026-05-07 17:38 | 7.84091 | -76.57808 | 34934 ft | 467 kts | 105° |
| 2026-05-07 17:39 | 7.82268 | -76.51507 | 34937 ft | 467 kts | 105° |
| 2026-05-07 17:39 | 7.80448 | -76.45225 | 34935 ft | 467 kts | 105° |
| 2026-05-07 17:40 | 7.78623 | -76.38925 | 34934 ft | 467 kts | 105° |
| 2026-05-07 17:40 | 7.76803 | -76.32647 | 34938 ft | 467 kts | 105° |
| 2026-05-07 17:41 | 7.74975 | -76.26349 | 34936 ft | 467 kts | 105° |
| 2026-05-07 17:41 | 7.73163 | -76.20103 | 34934 ft | 467 kts | 105° |
| 2026-05-07 17:42 | 7.71324 | -76.13772 | 34936 ft | 468 kts | 105° |
| 2026-05-07 17:42 | 7.69506 | -76.07513 | 34938 ft | 468 kts | 105° |
| 2026-05-07 17:43 | 7.67675 | -76.01217 | 34938 ft | 468 kts | 105° |
| 2026-05-07 17:43 | 7.65847 | -75.94933 | 34942 ft | 469 kts | 105° |
| 2026-05-07 17:44 | 7.64010 | -75.88623 | 34943 ft | 468 kts | 105° |
| 2026-05-07 17:44 | 7.62170 | -75.82307 | 34946 ft | 469 kts | 105° |
| 2026-05-07 17:45 | 7.60329 | -75.75992 | 34941 ft | 469 kts | 105° |
| 2026-05-07 17:45 | 7.58483 | -75.69669 | 34944 ft | 470 kts | 105° |
| 2026-05-07 17:46 | 7.56637 | -75.63348 | 34942 ft | 470 kts | 105° |
| 2026-05-07 17:46 | 7.54792 | -75.57043 | 34939 ft | 471 kts | 105° |
| 2026-05-07 17:47 | 7.52934 | -75.50709 | 34939 ft | 471 kts | 105° |
| 2026-05-07 17:47 | 7.51068 | -75.44372 | 34937 ft | 471 kts | 106° |
| 2026-05-07 17:48 | 7.49199 | -75.38050 | 34926 ft | 471 kts | 106° |
| 2026-05-07 17:48 | 7.47196 | -75.31799 | 34925 ft | 470 kts | 104° |
| 2026-05-07 17:49 | 7.45259 | -75.25493 | 34920 ft | 470 kts | 107° |
| 2026-05-07 17:49 | 7.43329 | -75.19242 | 34482 ft | 466 kts | 106° |
| 2026-05-07 17:50 | 7.42402 | -75.16105 | 33992 ft | 463 kts | 106° |
| 2026-05-07 17:50 | 7.41498 | -75.13005 | 33444 ft | 460 kts | 106° |
| 2026-05-07 17:50 | 7.40608 | -75.09937 | 32918 ft | 456 kts | 106° |
| 2026-05-07 17:50 | 7.39720 | -75.06871 | 32377 ft | 452 kts | 106° |
| 2026-05-07 17:51 | 7.38840 | -75.03833 | 31816 ft | 450 kts | 106° |
| 2026-05-07 17:51 | 7.37967 | -75.00822 | 31321 ft | 446 kts | 106° |
| 2026-05-07 17:51 | 7.37110 | -74.97869 | 31302 ft | 428 kts | 106° |
| 2026-05-07 17:51 | 7.36297 | -74.95070 | 31632 ft | 404 kts | 106° |
| 2026-05-07 17:52 | 7.35524 | -74.92411 | 31844 ft | 388 kts | 106° |
| 2026-05-07 17:52 | 7.34852 | -74.89807 | 31911 ft | 387 kts | 96° |
| 2026-05-07 17:52 | 7.34885 | -74.87082 | 31917 ft | 392 kts | 77° |
| 2026-05-07 17:52 | 7.35582 | -74.84470 | 31925 ft | 392 kts | 72° |
| 2026-05-07 17:53 | 7.37203 | -74.79236 | 31922 ft | 390 kts | 71° |
| 2026-05-07 17:53 | 7.38827 | -74.74022 | 31920 ft | 391 kts | 71° |
| 2026-05-07 17:54 | 7.40458 | -74.68794 | 31915 ft | 391 kts | 71° |
| 2026-05-07 17:54 | 7.42085 | -74.63585 | 31916 ft | 391 kts | 71° |
| 2026-05-07 17:55 | 7.43523 | -74.58302 | 31918 ft | 390 kts | 85° |
| 2026-05-07 17:55 | 7.43358 | -74.55574 | 31924 ft | 392 kts | 103° |
| 2026-05-07 17:55 | 7.42393 | -74.53029 | 31926 ft | 392 kts | 121° |
| 2026-05-07 17:56 | 7.39296 | -74.48506 | 31926 ft | 391 kts | 124° |
| 2026-05-07 17:56 | 7.36435 | -74.43844 | 31924 ft | 391 kts | 120° |
| 2026-05-07 17:57 | 7.34266 | -74.39849 | 31928 ft | 391 kts | 118° |
| 2026-05-07 17:57 | 7.31278 | -74.34187 | 31923 ft | 391 kts | 118° |
| 2026-05-07 17:58 | 7.28725 | -74.29354 | 31921 ft | 391 kts | 118° |
| 2026-05-07 17:58 | 7.26186 | -74.24555 | 31559 ft | 387 kts | 118° |
| 2026-05-07 17:59 | 7.24922 | -74.22169 | 31194 ft | 385 kts | 118° |
| 2026-05-07 17:59 | 7.23665 | -74.19796 | 30759 ft | 383 kts | 118° |
| 2026-05-07 17:59 | 7.22420 | -74.17445 | 30344 ft | 381 kts | 118° |
| 2026-05-07 17:59 | 7.21174 | -74.15095 | 30032 ft | 375 kts | 118° |
| 2026-05-07 18:00 | 7.19954 | -74.12791 | 29917 ft | 372 kts | 118° |
| 2026-05-07 18:00 | 7.18731 | -74.10484 | 29824 ft | 374 kts | 118° |
| 2026-05-07 18:00 | 7.17528 | -74.08214 | 29558 ft | 373 kts | 118° |
| 2026-05-07 18:00 | 7.16304 | -74.05905 | 29178 ft | 372 kts | 118° |
| 2026-05-07 18:01 | 7.15092 | -74.03621 | 28767 ft | 369 kts | 118° |
| 2026-05-07 18:01 | 7.13889 | -74.01352 | 28343 ft | 366 kts | 117° |
| 2026-05-07 18:01 | 7.12698 | -73.99107 | 27927 ft | 363 kts | 117° |
| 2026-05-07 18:01 | 7.11502 | -73.96851 | 27517 ft | 359 kts | 117° |
| 2026-05-07 18:02 | 7.09181 | -73.92477 | 26728 ft | 353 kts | 117° |
| 2026-05-07 18:02 | 7.08026 | -73.90301 | 26336 ft | 350 kts | 117° |
| 2026-05-07 18:02 | 7.06884 | -73.88149 | 25968 ft | 348 kts | 117° |
| 2026-05-07 18:03 | 7.05748 | -73.86010 | 25602 ft | 345 kts | 117° |
| 2026-05-07 18:03 | 7.04625 | -73.83897 | 25246 ft | 342 kts | 117° |
| 2026-05-07 18:03 | 7.03521 | -73.81781 | 24885 ft | 339 kts | 113° |
| 2026-05-07 18:03 | 7.02680 | -73.79567 | 24427 ft | 339 kts | 104° |
| 2026-05-07 18:04 | 7.02320 | -73.78054 | 24158 ft | 340 kts | 99° |
| 2026-05-07 18:04 | 7.01689 | -73.74768 | 23946 ft | 371 kts | 100° |
| 2026-05-07 18:04 | 7.01161 | -73.72160 | 23894 ft | 389 kts | 100° |
| 2026-05-07 18:04 | 7.00605 | -73.69446 | 23898 ft | 405 kts | 101° |
| 2026-05-07 18:05 | 7.00026 | -73.66626 | 23902 ft | 420 kts | 101° |
| 2026-05-07 18:05 | 6.99423 | -73.63679 | 23905 ft | 435 kts | 101° |
| 2026-05-07 18:05 | 6.98811 | -73.60682 | 23908 ft | 448 kts | 101° |
| 2026-05-07 18:05 | 6.98167 | -73.57526 | 23909 ft | 460 kts | 101° |
| 2026-05-07 18:06 | 6.97517 | -73.54336 | 23916 ft | 471 kts | 101° |
| 2026-05-07 18:06 | 6.96854 | -73.51086 | 23908 ft | 476 kts | 101° |
| 2026-05-07 18:06 | 6.96191 | -73.47843 | 23472 ft | 471 kts | 101° |
| 2026-05-07 18:06 | 6.95530 | -73.44606 | 22345 ft | 472 kts | 101° |
| 2026-05-07 18:07 | 6.94874 | -73.41391 | 21319 ft | 466 kts | 101° |
| 2026-05-07 18:07 | 6.94236 | -73.38266 | 20328 ft | 459 kts | 101° |
| 2026-05-07 18:07 | 6.93406 | -73.35181 | 19286 ft | 452 kts | 110° |
| 2026-05-07 18:07 | 6.92058 | -73.32350 | 18276 ft | 446 kts | 121° |
| 2026-05-07 18:08 | 6.90236 | -73.29849 | 17178 ft | 439 kts | 131° |
| 2026-05-07 18:08 | 6.88043 | -73.27757 | 16169 ft | 432 kts | 141° |
| 2026-05-07 18:08 | 6.85555 | -73.26106 | 15168 ft | 426 kts | 150° |
| 2026-05-07 18:08 | 6.82865 | -73.24923 | 14107 ft | 420 kts | 158° |
| 2026-05-07 18:09 | 6.80228 | -73.23744 | 13000 ft | 411 kts | 150° |
| 2026-05-07 18:09 | 6.77870 | -73.22174 | 11995 ft | 402 kts | 140° |
| 2026-05-07 18:09 | 6.75840 | -73.20248 | 11341 ft | 401 kts | 131° |
| 2026-05-07 18:09 | 6.74157 | -73.18021 | 10722 ft | 400 kts | 121° |
| 2026-05-07 18:10 | 6.73258 | -73.16406 | 10307 ft | 396 kts | 116° |
| 2026-05-07 18:10 | 6.71859 | -73.12998 | 9470 ft | 399 kts | 103° |
| 2026-05-07 18:10 | 6.71617 | -73.10220 | 8804 ft | 395 kts | 86° |
| 2026-05-07 18:10 | 6.72157 | -73.07592 | 8277 ft | 386 kts | 69° |
| 2026-05-07 18:11 | 6.73505 | -73.05266 | 8063 ft | 389 kts | 50° |
| 2026-05-07 18:11 | 6.74800 | -73.03992 | 8003 ft | 380 kts | 37° |
| 2026-05-07 18:11 | 6.77762 | -73.02621 | 7987 ft | 332 kts | 8° |
| 2026-05-07 18:11 | 6.79949 | -73.02775 | 7990 ft | 298 kts | 340° |
| 2026-05-07 18:12 | 6.81614 | -73.03802 | 7996 ft | 269 kts | 321° |
| 2026-05-07 18:12 | 6.82987 | -73.04943 | 7997 ft | 252 kts | 321° |
| 2026-05-07 18:12 | 6.84345 | -73.06062 | 8011 ft | 264 kts | 321° |
| 2026-05-07 18:12 | 6.85835 | -73.07255 | 8007 ft | 277 kts | 322° |
| 2026-05-07 18:13 | 6.87361 | -73.08429 | 8011 ft | 276 kts | 325° |
| 2026-05-07 18:13 | 6.89006 | -73.09417 | 8018 ft | 276 kts | 334° |
| 2026-05-07 18:13 | 6.90772 | -73.10193 | 7943 ft | 277 kts | 339° |
| 2026-05-07 18:13 | 6.92573 | -73.10865 | 7629 ft | 276 kts | 340° |
| 2026-05-07 18:14 | 6.94367 | -73.11543 | 7352 ft | 271 kts | 339° |
| 2026-05-07 18:14 | 6.96077 | -73.12183 | 7273 ft | 255 kts | 339° |
| 2026-05-07 18:14 | 6.97721 | -73.12796 | 6999 ft | 248 kts | 339° |
| 2026-05-07 18:14 | 6.99234 | -73.13360 | 7085 ft | 218 kts | 338° |
| 2026-05-07 18:15 | 7.00594 | -73.13906 | 6868 ft | 206 kts | 339° |
| 2026-05-07 18:15 | 7.01918 | -73.14407 | 6602 ft | 197 kts | 339° |
| 2026-05-07 18:15 | 7.03136 | -73.14868 | 6334 ft | 180 kts | 339° |
| 2026-05-07 18:15 | 7.04270 | -73.15298 | 5992 ft | 168 kts | 339° |
| 2026-05-07 18:16 | 7.05326 | -73.15698 | 5641 ft | 157 kts | 339° |
| 2026-05-07 18:16 | 7.06327 | -73.16077 | 5296 ft | 151 kts | 338° |
| 2026-05-07 18:16 | 7.07292 | -73.16442 | 4982 ft | 146 kts | 338° |
| 2026-05-07 18:16 | 7.08227 | -73.16797 | 4673 ft | 142 kts | 339° |
| 2026-05-07 18:17 | 7.09132 | -73.17139 | 4446 ft | 136 kts | 339° |
| 2026-05-07 18:17 | 7.10037 | -73.17494 | 4236 ft | 142 kts | 336° |
| 2026-05-07 18:17 | 7.10931 | -73.17909 | 4096 ft | 143 kts | 337° |
| 2026-05-07 18:17 | 7.11878 | -73.18175 | 3881 ft | 142 kts | 331° |
| 2026-05-07 18:18 | 7.12063 | -73.18232 | 3882 ft | 0 kts | 329° |
| 2026-05-07 18:19 | 9.06860 | -79.38533 | 134 ft | 0 kts | 180° |